Time;durP1;ratioP1;P1;durP2;ratioP2;P2;SDS_P1;SDS_P2;PMS_P1;PMS_P2;Temp;Humidity;BMP_temperature;BMP_pressure;BME280_temperature;BME280_humidity;BME280_pressure;Samples;Min_cycle;Max_cycle;Signal;HPM_P1;HPM_P2
2021/11/13 00:00:14;;;;;;;8.20;6.20;;;13.40;79.70;;;;;;5117938;27;20046;-61
2021/11/13 00:02:40;;;;;;;6.93;6.22;;;13.40;79.70;;;;;;5134805;27;20421;-61
2021/11/13 00:05:07;;;;;;;7.07;6.05;;;13.40;79.70;;;;;;5140541;27;20047;-61
2021/11/13 00:07:32;;;;;;;7.00;5.78;;;13.40;79.70;;;;;;5134123;27;20035;-61
2021/11/13 00:09:59;;;;;;;7.07;6.05;;;13.40;79.70;;;;;;5152132;27;20043;-61
2021/11/13 00:12:24;;;;;;;6.18;5.22;;;13.40;79.70;;;;;;5154274;27;20039;-62
2021/11/13 00:14:50;;;;;;;6.82;5.97;;;13.40;79.70;;;;;;5139268;27;20055;-62
2021/11/13 00:17:16;;;;;;;6.80;5.45;;;13.40;79.70;;;;;;5135885;27;20053;-61
2021/11/13 00:19:44;;;;;;;7.35;5.88;;;13.40;79.60;;;;;;5151681;27;20042;-61
2021/11/13 00:22:10;;;;;;;6.43;5.72;;;13.40;80.30;;;;;;5145377;27;20043;-62
2021/11/13 00:24:36;;;;;;;7.00;5.70;;;13.40;79.70;;;;;;5143334;27;20043;-61
2021/11/13 00:27:04;;;;;;;6.30;5.18;;;13.40;79.70;;;;;;5132816;28;20452;-61
2021/11/13 00:29:30;;;;;;;7.15;5.97;;;13.40;79.70;;;;;;5133821;27;20463;-60
2021/11/13 00:31:56;;;;;;;6.30;5.57;;;13.40;79.70;;;;;;5132973;27;20062;-61
2021/11/13 00:34:23;;;;;;;6.65;5.88;;;13.40;79.70;;;;;;5142504;27;20039;-61
2021/11/13 00:36:48;;;;;;;6.60;5.68;;;13.40;79.70;;;;;;5152839;27;20039;-60
2021/11/13 00:39:14;;;;;;;6.32;5.72;;;13.40;79.70;;;;;;5143822;27;20039;-63
2021/11/13 00:41:40;;;;;;;8.82;5.80;;;13.40;79.70;;;;;;5115131;28;20051;-62
2021/11/13 00:44:06;;;;;;;7.10;6.03;;;13.40;79.70;;;;;;5136131;27;20027;-63
2021/11/13 00:46:32;;;;;;;6.22;5.63;;;13.40;79.70;;;;;;5134398;27;20051;-64
2021/11/13 00:48:57;;;;;;;6.18;5.30;;;13.40;79.80;;;;;;5150342;27;20046;-64
2021/11/13 00:51:24;;;;;;;6.18;5.55;;;13.40;79.70;;;;;;5136901;27;20043;-63
2021/11/13 00:53:49;;;;;;;5.93;5.32;;;13.40;79.80;;;;;;5142921;27;20039;-63
2021/11/13 00:56:15;;;;;;;6.20;5.57;;;13.40;79.70;;;;;;5137120;27;20035;-64
2021/11/13 00:58:41;;;;;;;6.53;5.70;;;13.40;79.70;;;;;;5128085;27;20049;-62
2021/11/13 01:01:07;;;;;;;6.57;5.78;;;13.40;79.80;;;;;;5144257;27;20051;-63
2021/11/13 01:03:33;;;;;;;6.45;5.30;;;13.40;79.70;;;;;;5136049;27;20127;-63
2021/11/13 01:05:59;;;;;;;6.03;5.10;;;13.40;79.80;;;;;;5144681;27;20429;-63
2021/11/13 01:08:24;;;;;;;5.80;5.00;;;13.50;79.80;;;;;;5118414;27;20062;-64
2021/11/13 01:10:51;;;;;;;6.32;5.65;;;13.40;79.80;;;;;;5156647;27;20442;-62
2021/11/13 01:13:17;;;;;;;6.53;5.53;;;13.40;79.80;;;;;;5136918;27;20047;-64
2021/11/13 01:15:44;;;;;;;6.28;5.32;;;13.40;79.80;;;;;;5135580;27;20043;-62
2021/11/13 01:18:10;;;;;;;5.35;4.82;;;13.40;79.80;;;;;;5147354;27;20058;-62
2021/11/13 01:20:36;;;;;;;5.68;4.78;;;13.40;79.80;;;;;;5140438;27;20035;-62
2021/11/13 01:23:03;;;;;;;6.18;5.57;;;13.40;79.80;;;;;;5136431;27;20112;-61
2021/11/13 01:25:29;;;;;;;5.95;4.95;;;13.40;79.80;;;;;;5149953;27;20043;-63
2021/11/13 01:27:55;;;;;;;6.10;5.30;;;13.40;79.80;;;;;;5156364;27;20385;-62
2021/11/13 01:30:21;;;;;;;6.57;5.57;;;13.50;79.80;;;;;;5141680;27;20456;-63
2021/11/13 01:32:48;;;;;;;5.97;5.35;;;13.40;79.80;;;;;;5135213;27;20039;-59
2021/11/13 01:35:15;;;;;;;6.80;5.53;;;13.40;79.80;;;;;;5136529;27;20076;-61
2021/11/13 01:37:41;;;;;;;6.63;5.07;;;13.40;79.80;;;;;;5134681;27;20583;-63
2021/11/13 01:40:11;;;;;;;5.97;4.95;;;13.40;79.80;;;;;;5134782;27;20080;-63
2021/11/13 01:42:37;;;;;;;6.30;5.10;;;13.40;79.80;;;;;;5135109;27;20051;-63
2021/11/13 01:45:05;;;;;;;6.70;5.65;;;13.40;79.80;;;;;;5136270;27;20031;-63
2021/11/13 01:47:31;;;;;;;6.05;5.13;;;13.40;79.80;;;;;;5135154;27;20050;-62
2021/11/13 01:49:57;;;;;;;6.22;5.45;;;13.40;79.80;;;;;;5147269;27;20050;-62
2021/11/13 01:52:22;;;;;;;6.30;5.18;;;13.40;79.80;;;;;;5155682;27;20043;-62
2021/11/13 01:54:49;;;;;;;5.70;4.88;;;13.40;79.80;;;;;;5143755;27;20039;-64
2021/11/13 01:57:22;;;;;;;6.43;5.22;;;13.40;79.80;;;;;;5135095;27;20251;-63
2021/11/13 01:59:51;;;;;;;5.93;5.32;;;13.40;79.80;;;;;;5135190;27;20047;-60
2021/11/13 02:02:17;;;;;;;5.22;4.50;;;13.40;79.80;;;;;;5147538;27;20064;-60
2021/11/13 02:04:43;;;;;;;6.57;5.45;;;13.40;79.80;;;;;;5146114;27;20049;-59
2021/11/13 02:07:10;;;;;;;6.07;5.13;;;13.30;79.70;;;;;;5138974;27;20105;-60
2021/11/13 02:09:36;;;;;;;5.75;4.63;;;13.50;79.80;;;;;;5137233;27;20056;-61
2021/11/13 02:12:02;;;;;;;5.45;4.75;;;13.40;79.80;;;;;;5152781;27;20046;-61
2021/11/13 02:14:29;;;;;;;5.50;4.80;;;13.40;79.80;;;;;;5116375;27;20046;-60
2021/11/13 02:16:55;;;;;;;5.68;5.07;;;13.40;79.80;;;;;;5136286;27;20474;-60
2021/11/13 02:19:21;;;;;;;5.93;5.03;;;13.40;79.90;;;;;;5140491;27;20446;-60
2021/11/13 02:21:47;;;;;;;5.90;4.65;;;13.40;79.90;;;;;;5142545;27;20505;-60
2021/11/13 02:24:13;;;;;;;6.40;4.88;;;13.40;79.90;;;;;;5120018;27;20035;-61
2021/11/13 02:26:39;;;;;;;6.63;5.05;;;13.40;79.90;;;;;;5152260;27;20167;-61
2021/11/13 02:29:05;;;;;;;5.40;4.88;;;13.40;79.80;;;;;;5155340;27;20102;-60
2021/11/13 02:31:50;;;;;;;5.75;4.80;;;13.40;79.80;;;;;;5134285;27;20117;-60
2021/11/13 02:34:16;;;;;;;5.72;5.10;;;13.40;79.80;;;;;;5134164;27;20494;-61
2021/11/13 02:36:42;;;;;;;4.95;4.45;;;13.40;79.90;;;;;;5135621;27;20047;-60
2021/11/13 02:39:11;;;;;;;5.65;4.70;;;13.40;79.90;;;;;;5145148;27;20436;-61
2021/11/13 02:41:37;;;;;;;4.80;4.25;;;13.40;79.90;;;;;;5154690;27;20342;-61
2021/11/13 02:44:05;;;;;;;6.30;4.90;;;13.40;79.90;;;;;;5144010;27;20035;-60
2021/11/13 02:46:33;;;;;;;5.35;4.53;;;13.40;79.90;;;;;;5133934;27;20513;-60
2021/11/13 02:49:01;;;;;;;5.38;4.57;;;13.40;79.90;;;;;;5136441;27;20046;-59
2021/11/13 02:51:27;;;;;;;4.90;4.40;;;13.40;79.90;;;;;;5150953;27;20038;-61
2021/11/13 02:53:52;;;;;;;5.45;4.50;;;13.40;79.90;;;;;;5154033;27;20534;-60
2021/11/13 02:56:20;;;;;;;5.15;4.32;;;13.40;79.90;;;;;;5138237;27;20459;-60
2021/11/13 02:58:48;;;;;;;5.10;4.53;;;13.40;80.00;;;;;;5153257;27;20051;-60
2021/11/13 03:01:18;;;;;;;5.18;4.57;;;13.40;79.90;;;;;;5119422;27;20065;-60
2021/11/13 03:03:50;;;;;;;4.93;4.43;;;13.40;79.90;;;;;;5142010;27;20103;-61
2021/11/13 03:06:16;;;;;;;4.85;4.20;;;13.40;79.90;;;;;;5127950;27;20047;-59
2021/11/13 03:08:43;;;;;;;4.68;4.07;;;13.40;79.90;;;;;;5154177;27;20559;-60
2021/11/13 03:11:11;;;;;;;5.03;4.10;;;13.40;79.90;;;;;;5152574;27;20386;-61
2021/11/13 03:13:39;;;;;;;4.68;4.28;;;13.40;79.90;;;;;;5142758;27;20059;-60
2021/11/13 03:16:06;;;;;;;5.10;4.60;;;13.40;79.90;;;;;;5133701;27;20054;-61
2021/11/13 03:18:32;;;;;;;4.57;4.18;;;13.40;79.90;;;;;;5138753;27;20488;-61
2021/11/13 03:21:07;;;;;;;4.43;4.03;;;13.40;79.90;;;;;;5153988;27;20034;-59
2021/11/13 03:23:36;;;;;;;5.38;4.63;;;13.40;79.90;;;;;;5153819;27;20159;-60
2021/11/13 03:26:22;;;;;;;5.10;4.38;;;13.40;80.00;;;;;;5153941;27;20513;-60
2021/11/13 03:28:52;;;;;;;4.43;3.80;;;13.40;79.90;;;;;;5152934;27;20506;-59
2021/11/13 03:31:22;;;;;;;4.97;4.47;;;13.50;80.00;;;;;;5133657;27;20051;-60
2021/11/13 03:33:47;;;;;;;4.18;3.78;;;13.40;80.00;;;;;;5153583;27;20107;-60
2021/11/13 03:36:16;;;;;;;4.72;4.05;;;13.40;80.00;;;;;;5153978;27;20489;-61
2021/11/13 03:38:42;;;;;;;4.68;4.22;;;13.40;80.00;;;;;;5153242;27;20054;-60
2021/11/13 03:41:08;;;;;;;4.30;3.65;;;13.40;79.90;;;;;;5114916;28;20063;-60
2021/11/13 03:43:36;;;;;;;4.25;3.83;;;13.40;79.90;;;;;;5134444;27;20035;-59
2021/11/13 03:46:03;;;;;;;4.03;3.47;;;13.40;79.90;;;;;;5132592;28;20058;-60
2021/11/13 03:48:29;;;;;;;4.70;4.20;;;13.40;79.90;;;;;;5133080;28;20486;-60
2021/11/13 03:50:54;;;;;;;4.53;3.80;;;13.40;79.90;;;;;;5152730;27;20039;-60
2021/11/13 03:53:20;;;;;;;4.57;4.10;;;13.40;79.90;;;;;;5140581;27;20031;-61
2021/11/13 03:55:46;;;;;;;5.00;4.00;;;13.40;79.90;;;;;;5114576;28;20055;-61
2021/11/13 03:58:11;;;;;;;4.40;4.00;;;13.40;79.90;;;;;;5133063;28;20043;-60
2021/11/13 04:00:39;;;;;;;4.68;4.18;;;13.50;79.90;;;;;;5147944;27;20461;-61
2021/11/13 04:03:05;;;;;;;4.28;3.50;;;13.40;79.90;;;;;;5136249;27;20051;-61
2021/11/13 04:05:30;;;;;;;4.70;4.13;;;13.40;79.90;;;;;;5139070;27;20049;-61
2021/11/13 04:07:57;;;;;;;5.18;3.90;;;13.40;79.90;;;;;;5153849;27;20047;-61
2021/11/13 04:10:24;;;;;;;4.25;3.55;;;13.40;79.90;;;;;;5151987;27;20066;-60
2021/11/13 04:12:49;;;;;;;4.72;3.67;;;13.40;79.90;;;;;;5148904;27;20043;-61
2021/11/13 04:15:16;;;;;;;4.47;3.92;;;13.30;79.90;;;;;;5133984;27;20051;-61
2021/11/13 04:17:43;;;;;;;4.10;3.70;;;13.40;79.90;;;;;;5133604;27;20407;-60
2021/11/13 04:20:11;;;;;;;4.30;3.63;;;13.40;79.90;;;;;;5154005;27;20043;-61
2021/11/13 04:22:37;;;;;;;4.28;3.50;;;13.40;79.90;;;;;;5133570;27;20035;-61
2021/11/13 04:25:04;;;;;;;4.97;3.95;;;13.40;79.90;;;;;;5137194;27;20047;-60
2021/11/13 04:27:30;;;;;;;4.10;3.70;;;13.40;79.90;;;;;;5136722;27;20027;-60
2021/11/13 04:29:56;;;;;;;4.20;3.72;;;13.40;79.90;;;;;;5136815;27;20043;-61
2021/11/13 04:32:21;;;;;;;4.13;3.72;;;13.40;79.90;;;;;;5146761;27;20043;-60
2021/11/13 04:35:02;;;;;;;4.13;3.67;;;13.40;79.90;;;;;;5155807;27;20078;-60
2021/11/13 04:37:29;;;;;;;4.30;3.88;;;13.50;80.00;;;;;;5136524;27;20183;-60
2021/11/13 04:39:54;;;;;;;3.90;3.28;;;13.40;79.90;;;;;;5136389;27;20075;-61
2021/11/13 04:42:20;;;;;;;3.88;3.47;;;13.40;79.90;;;;;;5139962;27;20081;-61
2021/11/13 04:44:49;;;;;;;3.80;3.33;;;13.40;79.90;;;;;;5156822;27;20039;-61
2021/11/13 04:47:16;;;;;;;5.25;4.20;;;13.40;79.90;;;;;;5143453;27;20043;-61
2021/11/13 04:49:42;;;;;;;4.05;3.65;;;13.30;80.50;;;;;;5135998;27;20065;-61
2021/11/13 04:52:09;;;;;;;4.22;3.83;;;13.50;79.90;;;;;;5137354;27;20034;-61
2021/11/13 04:54:36;;;;;;;3.53;3.22;;;13.40;79.90;;;;;;5149880;27;20542;-59
2021/11/13 04:57:03;;;;;;;4.10;3.70;;;13.40;79.90;;;;;;5153409;27;20045;-61
2021/11/13 04:59:28;;;;;;;4.25;3.83;;;13.40;79.90;;;;;;5149939;27;20051;-61
2021/11/13 05:01:54;;;;;;;4.80;3.90;;;13.40;79.90;;;;;;5146075;27;20095;-61
2021/11/13 05:04:20;;;;;;;4.25;3.70;;;13.40;79.90;;;;;;5155872;27;20131;-61
2021/11/13 05:06:46;;;;;;;4.05;3.65;;;13.40;79.90;;;;;;5154694;27;20035;-61
2021/11/13 05:09:11;;;;;;;4.57;3.65;;;13.40;79.90;;;;;;5156509;27;20463;-61
2021/11/13 05:11:37;;;;;;;3.80;3.40;;;13.40;79.90;;;;;;5156247;27;20125;-62
2021/11/13 05:14:03;;;;;;;3.72;3.28;;;13.40;79.90;;;;;;5156330;27;20057;-61
2021/11/13 05:16:28;;;;;;;4.03;3.63;;;13.40;79.90;;;;;;5137807;27;20055;-61
2021/11/13 05:18:54;;;;;;;3.53;3.22;;;13.40;79.90;;;;;;5137079;27;20475;-60
2021/11/13 05:21:20;;;;;;;3.83;3.38;;;13.40;79.90;;;;;;5150593;27;20495;-61
2021/11/13 05:23:45;;;;;;;3.83;3.33;;;13.40;79.90;;;;;;5142757;27;20742;-61
2021/11/13 05:26:11;;;;;;;4.05;3.50;;;13.40;79.90;;;;;;5155792;27;20030;-61
2021/11/13 05:28:37;;;;;;;3.95;3.55;;;13.40;79.90;;;;;;5141434;27;20487;-61
2021/11/13 05:31:04;;;;;;;4.20;3.63;;;13.40;79.90;;;;;;5136322;27;20084;-60
2021/11/13 05:33:29;;;;;;;4.57;3.78;;;13.50;79.90;;;;;;5116667;27;20070;-61
2021/11/13 05:35:59;;;;;;;3.50;3.20;;;13.40;79.90;;;;;;5153341;27;20066;-61
2021/11/13 05:38:25;;;;;;;3.67;3.38;;;13.40;79.90;;;;;;5154450;27;20035;-60
2021/11/13 05:40:51;;;;;;;4.18;3.70;;;13.40;79.90;;;;;;5155927;27;20091;-61
2021/11/13 05:43:16;;;;;;;4.45;3.95;;;13.40;79.90;;;;;;5140684;27;20446;-61
2021/11/13 05:45:42;;;;;;;3.80;3.40;;;13.40;79.90;;;;;;5155482;27;20122;-61
2021/11/13 05:48:08;;;;;;;3.72;3.30;;;13.40;79.90;;;;;;5155789;27;20436;-61
2021/11/13 05:50:34;;;;;;;3.80;3.42;;;13.40;79.90;;;;;;5154297;27;20550;-60
2021/11/13 05:53:01;;;;;;;5.15;3.70;;;13.40;80.60;;;;;;5155388;27;20035;-61
2021/11/13 05:55:27;;;;;;;3.72;3.33;;;13.40;80.60;;;;;;5134136;27;20047;-60
2021/11/13 05:57:53;;;;;;;4.05;3.65;;;13.40;79.90;;;;;;5135229;27;20039;-61
2021/11/13 06:00:21;;;;;;;3.88;3.38;;;13.40;79.90;;;;;;5147403;27;20387;-61
2021/11/13 06:02:48;;;;;;;4.43;4.03;;;13.40;79.90;;;;;;5155764;27;20038;-60
2021/11/13 06:05:15;;;;;;;4.03;3.63;;;13.40;79.90;;;;;;5141858;27;20479;-60
2021/11/13 06:07:41;;;;;;;4.63;3.65;;;13.40;79.90;;;;;;5134280;27;20043;-61
2021/11/13 06:10:09;;;;;;;4.18;3.75;;;13.40;79.90;;;;;;5146120;27;20160;-60
2021/11/13 06:12:34;;;;;;;3.70;3.40;;;13.40;79.90;;;;;;5155165;27;20070;-60
2021/11/13 06:15:01;;;;;;;4.30;3.67;;;13.40;79.90;;;;;;5151963;27;20108;-61
2021/11/13 06:17:30;;;;;;;3.83;3.40;;;13.40;79.90;;;;;;5134675;27;20043;-60
2021/11/13 06:19:56;;;;;;;3.78;3.47;;;13.40;79.90;;;;;;5134818;27;20042;-60
2021/11/13 06:22:22;;;;;;;5.43;4.18;;;13.40;79.90;;;;;;5117766;27;20054;-62
2021/11/13 06:24:48;;;;;;;3.75;3.45;;;13.40;79.90;;;;;;5137921;27;20035;-64
2021/11/13 06:27:16;;;;;;;4.15;3.70;;;13.40;79.90;;;;;;5134972;27;20054;-61
2021/11/13 06:29:42;;;;;;;4.45;4.05;;;13.40;79.90;;;;;;5155048;27;20046;-63
2021/11/13 06:32:08;;;;;;;4.72;4.00;;;13.40;79.90;;;;;;5142462;27;20047;-63
2021/11/13 06:34:35;;;;;;;4.40;3.92;;;13.40;79.90;;;;;;5115970;27;20399;-59
2021/11/13 06:37:01;;;;;;;3.90;3.50;;;13.50;79.90;;;;;;5150100;27;20142;-62
2021/11/13 06:39:26;;;;;;;4.45;3.53;;;13.40;79.90;;;;;;5154400;27;20494;-63
2021/11/13 06:41:52;;;;;;;4.10;3.70;;;13.40;79.90;;;;;;5135271;27;20034;-64
2021/11/13 06:44:18;;;;;;;3.70;3.15;;;13.40;79.90;;;;;;5142711;27;20059;-61
2021/11/13 06:46:44;;;;;;;4.72;4.32;;;13.40;79.90;;;;;;5135164;27;20035;-65
2021/11/13 06:49:10;;;;;;;3.80;3.40;;;13.40;79.90;;;;;;5115529;27;20039;-65
2021/11/13 06:51:37;;;;;;;4.55;3.80;;;13.40;79.90;;;;;;5137239;27;20041;-66
2021/11/13 06:54:02;;;;;;;4.10;3.70;;;13.40;79.90;;;;;;5153996;27;20038;-63
2021/11/13 06:56:28;;;;;;;4.75;3.97;;;13.40;79.90;;;;;;5145495;27;20086;-65
2021/11/13 06:58:54;;;;;;;4.50;3.95;;;13.40;79.90;;;;;;5134071;27;20039;-65
2021/11/13 07:01:20;;;;;;;3.50;3.20;;;13.40;79.90;;;;;;5139496;27;20123;-63
2021/11/13 07:03:45;;;;;;;3.75;3.10;;;13.40;79.90;;;;;;5133413;27;20035;-64
2021/11/13 07:06:11;;;;;;;4.43;4.00;;;13.40;79.90;;;;;;5141183;27;20470;-63
2021/11/13 07:08:37;;;;;;;4.25;3.60;;;13.40;79.90;;;;;;5151903;27;20035;-62
2021/11/13 07:11:03;;;;;;;4.18;3.65;;;13.40;79.90;;;;;;5153154;27;20039;-63
2021/11/13 07:13:29;;;;;;;4.45;4.05;;;13.50;79.90;;;;;;5152691;27;20061;-62
2021/11/13 07:15:56;;;;;;;4.00;3.35;;;13.40;79.90;;;;;;5153215;27;20551;-65
2021/11/13 07:18:21;;;;;;;4.60;4.05;;;13.40;79.90;;;;;;5152404;27;20143;-64
2021/11/13 07:20:55;;;;;;;4.05;3.50;;;13.40;79.90;;;;;;5141998;27;20528;-63
2021/11/13 07:23:21;;;;;;;3.70;3.30;;;13.50;80.00;;;;;;5145178;27;20507;-62
2021/11/13 07:25:48;;;;;;;4.03;3.60;;;13.40;79.90;;;;;;5150533;27;20383;-62
2021/11/13 07:28:15;;;;;;;5.18;3.78;;;13.40;79.90;;;;;;5154060;27;20042;-61
2021/11/13 07:30:44;;;;;;;4.03;3.63;;;13.40;79.90;;;;;;5152256;27;20061;-62
2021/11/13 07:33:11;;;;;;;4.18;3.60;;;13.40;79.90;;;;;;5135303;27;20051;-63
2021/11/13 07:35:39;;;;;;;3.80;3.50;;;13.30;79.80;;;;;;5142924;27;20043;-64
2021/11/13 07:38:05;;;;;;;4.28;3.67;;;13.30;79.80;;;;;;5142405;27;20081;-61
2021/11/13 07:40:32;;;;;;;4.28;3.70;;;13.40;79.90;;;;;;5116127;27;20131;-63
2021/11/13 07:43:00;;;;;;;3.80;3.50;;;13.40;79.90;;;;;;5134940;27;20046;-63
2021/11/13 07:45:30;;;;;;;3.80;3.33;;;13.40;79.90;;;;;;5138550;27;20043;-63
2021/11/13 07:47:56;;;;;;;4.47;4.05;;;13.40;79.90;;;;;;5141755;27;20495;-62
2021/11/13 07:50:22;;;;;;;4.63;3.78;;;13.40;79.90;;;;;;5152051;27;20047;-64
2021/11/13 07:52:49;;;;;;;3.95;3.47;;;13.30;79.80;;;;;;5153709;27;20038;-63
2021/11/13 07:55:16;;;;;;;4.05;3.65;;;13.40;79.90;;;;;;5117167;27;20043;-61
2021/11/13 07:57:45;;;;;;;4.10;3.70;;;13.40;79.90;;;;;;5153466;27;20031;-65
2021/11/13 08:00:14;;;;;;;4.68;3.88;;;13.40;79.90;;;;;;5157651;27;20215;-66
2021/11/13 08:02:40;;;;;;;4.40;3.80;;;13.40;79.90;;;;;;5155091;27;20081;-63
2021/11/13 08:05:07;;;;;;;4.60;4.00;;;13.40;79.80;;;;;;5148576;27;20050;-66
2021/11/13 08:07:33;;;;;;;3.78;3.47;;;13.40;79.90;;;;;;5153316;27;20030;-63
2021/11/13 08:09:58;;;;;;;4.70;3.80;;;13.40;79.90;;;;;;5144822;27;20399;-65
2021/11/13 08:12:24;;;;;;;3.95;3.38;;;13.40;79.90;;;;;;5118863;27;20548;-63
2021/11/13 08:14:50;;;;;;;4.43;3.72;;;13.40;79.90;;;;;;5117901;27;20098;-62
2021/11/13 08:17:16;;;;;;;4.15;3.75;;;13.40;79.80;;;;;;5137156;27;20156;-61
2021/11/13 08:19:41;;;;;;;4.80;3.92;;;13.40;79.90;;;;;;5138339;27;20112;-63
2021/11/13 08:22:07;;;;;;;4.43;4.03;;;13.40;79.80;;;;;;5118411;27;20482;-61
2021/11/13 08:24:35;;;;;;;5.10;3.88;;;13.40;79.90;;;;;;5137059;27;20039;-63
2021/11/13 08:27:02;;;;;;;4.22;3.83;;;13.40;79.80;;;;;;5137288;27;20047;-63
2021/11/13 08:29:27;;;;;;;4.63;4.03;;;13.40;79.90;;;;;;5144522;27;20770;-63
2021/11/13 08:31:53;;;;;;;4.47;3.63;;;13.40;79.90;;;;;;5156993;27;20047;-62
2021/11/13 08:34:19;;;;;;;4.10;3.70;;;13.40;79.90;;;;;;5157048;27;20049;-62
2021/11/13 08:36:44;;;;;;;14.60;12.32;;;13.40;79.90;;;;;;5157527;27;20043;-59
2021/11/13 08:39:11;;;;;;;14.45;12.43;;;13.40;80.20;;;;;;5157883;27;20390;-58
2021/11/13 08:41:36;;;;;;;15.07;11.43;;;13.40;80.70;;;;;;5157066;27;20074;-57
2021/11/13 08:44:03;;;;;;;13.15;11.43;;;13.20;80.70;;;;;;5157152;27;20073;-58
2021/11/13 08:46:29;;;;;;;14.07;11.80;;;13.20;80.90;;;;;;5156585;27;20047;-59
2021/11/13 08:48:55;;;;;;;13.60;11.35;;;13.30;81.00;;;;;;5138143;27;20457;-57
2021/11/13 08:51:21;;;;;;;13.80;11.48;;;13.20;81.00;;;;;;5157255;27;20042;-58
2021/11/13 08:53:53;;;;;;;12.43;11.13;;;13.30;80.90;;;;;;5156955;27;20103;-59
2021/11/13 08:56:24;;;;;;;12.48;11.07;;;13.30;80.90;;;;;;5155699;27;20081;-57
2021/11/13 08:58:54;;;;;;;11.90;10.38;;;13.30;80.90;;;;;;5157154;27;20038;-58
2021/11/13 09:01:22;;;;;;;12.07;10.32;;;13.30;80.80;;;;;;5156494;27;20049;-58
2021/11/13 09:03:51;;;;;;;11.73;10.32;;;13.30;80.80;;;;;;5156920;27;20402;-59
2021/11/13 09:06:21;;;;;;;11.73;10.43;;;13.30;81.30;;;;;;5137544;27;20061;-59
2021/11/13 09:08:49;;;;;;;15.55;10.48;;;13.30;80.60;;;;;;5156959;27;20053;-59
2021/11/13 09:11:23;;;;;;;11.25;10.05;;;13.30;80.60;;;;;;5155172;27;20053;-58
2021/11/13 09:13:50;;;;;;;10.82;9.48;;;13.40;80.60;;;;;;5156462;27;20055;-58
2021/11/13 09:16:16;;;;;;;13.05;11.13;;;13.40;80.50;;;;;;5155864;27;20046;-58
2021/11/13 09:18:44;;;;;;;13.52;10.55;;;13.30;80.50;;;;;;5156059;27;20043;-57
2021/11/13 09:21:10;;;;;;;11.93;9.73;;;13.40;80.50;;;;;;5156795;27;20077;-58
2021/11/13 09:23:37;;;;;;;10.40;9.27;;;13.30;80.40;;;;;;5156440;27;20035;-57
2021/11/13 09:26:06;;;;;;;12.60;9.95;;;13.40;80.40;;;;;;5156323;27;20436;-56
2021/11/13 09:28:32;;;;;;;10.70;9.25;;;13.20;80.30;;;;;;5156576;27;20085;-58
2021/11/13 09:30:59;;;;;;;10.43;9.32;;;13.40;80.40;;;;;;5156211;27;20042;-57
2021/11/13 09:33:27;;;;;;;11.38;9.60;;;13.30;80.30;;;;;;5155850;27;20046;-58
2021/11/13 09:35:53;;;;;;;11.50;10.07;;;13.50;80.40;;;;;;5155944;27;20081;-59
2021/11/13 09:38:22;;;;;;;18.00;12.93;;;13.40;80.30;;;;;;5155860;27;20038;-62
2021/11/13 09:40:48;;;;;;;12.35;10.27;;;13.40;80.60;;;;;;5137920;27;20035;-61
2021/11/13 09:43:15;;;;;;;12.05;9.85;;;13.30;80.50;;;;;;5156527;27;20437;-62
2021/11/13 09:45:40;;;;;;;11.50;9.05;;;13.40;80.60;;;;;;5156348;27;20121;-62
2021/11/13 09:48:07;;;;;;;11.02;9.85;;;13.30;80.50;;;;;;5136872;27;20132;-62
2021/11/13 09:50:36;;;;;;;10.90;9.63;;;13.40;80.50;;;;;;5157429;27;20035;-61
2021/11/13 09:53:04;;;;;;;10.68;9.57;;;13.40;80.50;;;;;;5157559;27;20047;-61
2021/11/13 09:55:30;;;;;;;9.57;8.57;;;13.40;80.50;;;;;;5136850;27;20047;-61
2021/11/13 09:57:56;;;;;;;9.98;8.95;;;13.40;80.50;;;;;;5136760;27;20099;-60
2021/11/13 10:00:26;;;;;;;12.23;10.00;;;13.40;80.40;;;;;;5155695;27;20046;-61
2021/11/13 10:02:53;;;;;;;11.05;9.20;;;13.40;80.40;;;;;;5155595;27;20432;-61
2021/11/13 10:05:18;;;;;;;10.82;9.73;;;13.40;80.40;;;;;;5155134;27;20042;-61
2021/11/13 10:07:45;;;;;;;10.25;8.82;;;13.40;80.40;;;;;;5155451;27;20053;-60
2021/11/13 10:10:25;;;;;;;10.18;9.10;;;13.40;80.40;;;;;;5155294;27;20074;-60
2021/11/13 10:12:50;;;;;;;10.27;9.20;;;13.40;80.30;;;;;;5155525;27;20047;-60
2021/11/13 10:15:34;;;;;;;9.95;8.73;;;13.40;80.30;;;;;;5155057;27;20098;-62
2021/11/13 10:18:11;;;;;;;10.93;9.18;;;13.40;80.20;;;;;;5155204;27;20099;-61
2021/11/13 10:20:41;;;;;;;11.02;9.27;;;13.40;80.30;;;;;;5154461;27;20038;-60
2021/11/13 10:23:07;;;;;;;10.50;9.25;;;13.40;80.30;;;;;;5154778;27;20050;-61
2021/11/13 10:25:33;;;;;;;10.68;9.40;;;13.40;80.30;;;;;;5136540;27;20106;-60
2021/11/13 10:28:14;;;;;;;9.95;8.93;;;13.40;80.30;;;;;;5155285;27;20538;-62
2021/11/13 10:30:41;;;;;;;10.32;8.65;;;13.40;80.20;;;;;;5154697;27;20526;-60
2021/11/13 10:33:07;;;;;;;9.18;8.27;;;13.40;80.30;;;;;;5155426;27;20087;-62
2021/11/13 10:35:49;;;;;;;8.90;8.00;;;13.40;80.20;;;;;;5136308;27;20145;-61
2021/11/13 10:38:21;;;;;;;9.32;8.32;;;13.40;80.20;;;;;;5154827;27;20034;-60
2021/11/13 10:40:50;;;;;;;9.77;8.35;;;13.40;80.20;;;;;;5154310;27;20035;-60
2021/11/13 10:43:16;;;;;;;10.65;8.80;;;13.40;80.20;;;;;;5154605;27;20050;-61
2021/11/13 10:45:55;;;;;;;9.18;8.18;;;13.40;80.20;;;;;;5135805;27;20054;-61
2021/11/13 10:48:22;;;;;;;8.98;8.05;;;13.40;80.80;;;;;;5135835;27;20088;-60
2021/11/13 10:50:48;;;;;;;9.27;8.05;;;13.40;80.20;;;;;;5154628;27;20049;-62
2021/11/13 10:53:14;;;;;;;15.80;11.23;;;13.40;80.20;;;;;;5153727;27;20405;-61
2021/11/13 10:55:59;;;;;;;11.60;10.05;;;13.40;80.70;;;;;;5154664;27;20039;-61
2021/11/13 10:58:31;;;;;;;11.00;8.88;;;13.40;80.90;;;;;;5154357;27;20486;-61
2021/11/13 11:00:58;;;;;;;10.65;9.55;;;13.40;81.00;;;;;;5154819;27;20042;-61
2021/11/13 11:03:36;;;;;;;11.20;9.52;;;13.40;81.10;;;;;;5154302;27;20038;-61
2021/11/13 11:06:02;;;;;;;9.95;8.77;;;13.30;81.10;;;;;;5154520;27;20078;-61
2021/11/13 11:08:35;;;;;;;11.20;8.98;;;13.40;81.10;;;;;;5153797;27;20481;-61
2021/11/13 11:11:07;;;;;;;10.77;8.73;;;13.30;81.10;;;;;;5135638;27;20047;-61
2021/11/13 11:13:50;;;;;;;10.93;8.95;;;13.40;81.10;;;;;;5154047;27;20050;-61
2021/11/13 11:16:31;;;;;;;10.75;8.80;;;13.30;81.00;;;;;;5153609;27;20049;-61
2021/11/13 11:19:00;;;;;;;10.80;9.07;;;13.30;81.00;;;;;;5152303;27;20076;-61
2021/11/13 11:21:43;;;;;;;11.40;9.20;;;13.30;81.00;;;;;;5153931;27;20053;-62
2021/11/13 11:24:12;;;;;;;9.07;8.20;;;13.30;80.90;;;;;;5152870;27;20041;-62
2021/11/13 11:26:39;;;;;;;10.10;8.88;;;13.30;80.90;;;;;;5153432;27;20107;-61
2021/11/13 11:29:06;;;;;;;9.43;8.43;;;13.30;80.90;;;;;;5134495;27;20050;-62
2021/11/13 11:31:44;;;;;;;9.82;8.45;;;13.40;80.90;;;;;;5151363;27;20043;-62
2021/11/13 11:34:28;;;;;;;9.80;8.80;;;13.40;80.90;;;;;;5134097;27;20140;-62
2021/11/13 11:36:56;;;;;;;9.38;8.38;;;13.40;80.90;;;;;;5135404;27;20385;-62
2021/11/13 11:39:23;;;;;;;10.10;7.78;;;13.40;80.90;;;;;;5153475;27;20470;-62
2021/11/13 11:41:50;;;;;;;8.50;7.57;;;13.40;80.90;;;;;;5153978;27;20042;-62
2021/11/13 11:44:17;;;;;;;10.95;8.68;;;13.40;80.90;;;;;;5154049;27;20046;-61
2021/11/13 11:46:43;;;;;;;8.95;7.78;;;13.30;80.80;;;;;;5134624;27;20047;-61
2021/11/13 11:49:11;;;;;;;10.75;8.35;;;13.40;80.90;;;;;;5153753;27;20367;-62
2021/11/13 11:51:38;;;;;;;8.35;7.53;;;13.40;80.90;;;;;;5153861;27;20046;-61
2021/11/13 11:54:06;;;;;;;8.77;7.80;;;13.40;80.90;;;;;;5153928;27;20070;-61
2021/11/13 11:56:33;;;;;;;8.50;7.70;;;13.40;80.90;;;;;;5152908;27;20115;-61
2021/11/13 11:59:05;;;;;;;9.10;7.70;;;13.40;80.80;;;;;;5154101;27;20117;-62
2021/11/13 12:01:35;;;;;;;8.20;7.22;;;13.40;80.90;;;;;;5153662;27;20039;-61
2021/11/13 12:04:21;;;;;;;8.68;7.40;;;13.40;80.80;;;;;;5153482;27;20113;-62
2021/11/13 12:06:55;;;;;;;8.48;7.55;;;13.40;80.80;;;;;;5153508;27;20127;-61
2021/11/13 12:09:22;;;;;;;8.35;7.50;;;13.40;80.80;;;;;;5153514;27;20497;-61
2021/11/13 12:12:10;;;;;;;8.00;6.95;;;13.40;80.80;;;;;;5153290;27;20035;-61
2021/11/13 12:14:37;;;;;;;8.55;7.65;;;13.40;80.70;;;;;;5153542;27;20054;-61
2021/11/13 12:17:32;;;;;;;7.93;7.13;;;13.40;80.80;;;;;;5153588;27;20051;-60
2021/11/13 12:20:04;;;;;;;7.07;6.38;;;13.40;80.70;;;;;;5134701;27;20449;-61
2021/11/13 12:22:39;;;;;;;8.15;7.07;;;13.40;80.80;;;;;;5153899;27;20476;-61
2021/11/13 12:25:14;;;;;;;;;;;13.40;80.70;;;;;;5154273;27;20469;-59
2021/11/13 12:27:41;;;;;;;7.80;7.05;;;13.40;80.70;;;;;;5152951;27;19915;-60
2021/11/13 12:30:08;;;;;;;7.78;6.82;;;13.30;80.80;;;;;;5153692;27;20074;-60
2021/11/13 12:32:38;;;;;;;7.95;6.82;;;13.40;80.80;;;;;;5153567;27;20418;-60
2021/11/13 12:35:09;;;;;;;7.95;7.00;;;13.40;80.80;;;;;;5153602;27;20124;-61
2021/11/13 12:37:35;;;;;;;8.13;7.15;;;13.40;80.70;;;;;;5153547;27;20426;-59
2021/11/13 12:40:00;;;;;;;7.93;6.95;;;13.40;80.70;;;;;;5153398;27;20089;-60
2021/11/13 12:42:28;;;;;;;8.40;6.80;;;13.40;80.70;;;;;;5149613;27;20043;-59
2021/11/13 12:44:59;;;;;;;8.60;6.60;;;13.40;80.70;;;;;;5150892;27;20474;-58
2021/11/13 12:47:34;;;;;;;7.22;6.53;;;13.40;80.70;;;;;;5153220;27;20082;-57